Aérodrome :
LOGIN :

S'inscrire | Disclaimer

   EN    FR    IT 

 










Légende :    VFR   VFR Marginal   IFR   IFR Intensif   IFR Très Intensif
Visi : 
Plafond : 
>= 8 km
>= 3000ft
5 à 8 km
1000 à 3000 ft
1500m à 5 km
500 à 1000 ft
800 à 1500m
200 à 500 ft
< 800m
< 200 ft
Symboles :   Orages  Brouillard  Fortes neiges  Fortes précipitations  Vent > 20 kt
SIGMETs :   Divers  Orages  Givrage  Turbulence  Onde Orograph.  Cendres Volcan.







- Altitude de l'aérodrome : 257 ft
- Code IATA : MAN
- Voir les cartes d'approche


EGCC - Manchester

DERNIER METAR :
  • 231820Z AUTO VRB02KT 9999 NCD 12/07 Q1032 NOSIG

METARs EXPIRÉS :
  • 231750Z AUTO VRB02KT 9999 NCD 12/07 Q1031 NOSIG
  • 231720Z AUTO 19004KT 150V220 9999 NCD 13/07 Q1031 NOSIG
  • 231650Z AUTO 19005KT 140V230 9999 NCD 13/07 Q1031 NOSIG
  • 231620Z AUTO 17004KT 090V230 9000 NCD 14/07 Q1030 NOSIG
  • 231550Z AUTO 18005KT 120V230 9999 NCD 14/07 Q1030 NOSIG
  • 231520Z AUTO 18006KT 100V220 9999 NCD 14/07 Q1030

TAF TAF EGCC
Valide du 23 à 18h jusqu'au 25 à 00h UTC


231654Z 2318/2424 17008KT 9999 FEW045
BECMG 2318/2321 6000
TEMPO 2321/2412 4000 BR BKN003
PROB30
TEMPO 2404/2411 0300 FG VV///
BECMG 2411/2414 9999
BECMG 2415/2418 7000
TEMPO 2418/2424 4000 BR
ATIS : +44 161 499 2324
Pas de NOTAMs connus pour ce terrain.



MET'MAP, la Météo Aéronautique d'un coup d'oeil ! - Copyright ORBIFLY Décembre 2007 - Disclaimer

ORBIFLY MET'MAP TEAM :

Programmation & Développement : Alexandra Zaïnal
Conception & Développement : Baudouin d'Aumeries
Co-Programmation & Développement : Marc-Olivier Méhu
Soutien technique & logistique : Manuel Goepfert

Contact : metmap@orbifly.com




SOURCES & CREDITS :

   NOAA